sensor_id;sensor_type;location;lat;lon;timestamp;pressure;altitude;pressure_sealevel;temperature;humidity
52032;BME280;38044;45.148;39.604;2022-09-30T00:01:43;101105.53;;;13.90;84.43
52032;BME280;38044;45.148;39.604;2022-09-30T00:04:18;101090.34;;;13.81;84.66
52032;BME280;38044;45.148;39.604;2022-09-30T00:06:44;101225.38;;;14.60;84.74
52032;BME280;38044;45.148;39.604;2022-09-30T00:09:11;101253.50;;;14.73;84.83
52032;BME280;38044;45.148;39.604;2022-09-30T00:11:38;101115.78;;;13.80;84.88
52032;BME280;38044;45.148;39.604;2022-09-30T00:14:06;101263.97;;;14.66;84.93
52032;BME280;38044;45.148;39.604;2022-09-30T00:16:36;101224.44;;;14.51;85.05
52032;BME280;38044;45.148;39.604;2022-09-30T00:19:03;101196.19;;;14.29;84.84
52032;BME280;38044;45.148;39.604;2022-09-30T00:21:30;101244.69;;;14.53;84.80
52032;BME280;38044;45.148;39.604;2022-09-30T00:23:58;101214.72;;;14.36;84.81
52032;BME280;38044;45.148;39.604;2022-09-30T00:26:24;101224.72;;;14.35;84.71
52032;BME280;38044;45.148;39.604;2022-09-30T00:28:52;101232.66;;;14.32;85.10
52032;BME280;38044;45.148;39.604;2022-09-30T00:31:20;101114.00;;;13.56;85.04
52032;BME280;38044;45.148;39.604;2022-09-30T00:33:47;101238.56;;;14.20;85.16
52032;BME280;38044;45.148;39.604;2022-09-30T00:36:40;101236.66;;;14.20;85.50
52032;BME280;38044;45.148;39.604;2022-09-30T00:39:10;101210.50;;;14.02;85.45
52032;BME280;38044;45.148;39.604;2022-09-30T00:41:36;101216.47;;;13.99;85.66
52032;BME280;38044;45.148;39.604;2022-09-30T00:49:50;101191.31;;;13.85;85.45
52032;BME280;38044;45.148;39.604;2022-09-30T00:52:17;101255.56;;;14.20;85.56
52032;BME280;38044;45.148;39.604;2022-09-30T00:54:44;101244.25;;;14.18;85.83
52032;BME280;38044;45.148;39.604;2022-09-30T00:57:10;101207.78;;;14.02;85.72
52032;BME280;38044;45.148;39.604;2022-09-30T00:59:40;101222.81;;;14.08;86.00
52032;BME280;38044;45.148;39.604;2022-09-30T01:02:08;101099.94;;;13.26;85.77
52032;BME280;38044;45.148;39.604;2022-09-30T01:04:36;101111.84;;;13.25;85.67
52032;BME280;38044;45.148;39.604;2022-09-30T01:07:05;101215.94;;;13.83;85.91
52032;BME280;38044;45.148;39.604;2022-09-30T01:09:36;101259.28;;;14.11;86.41
52032;BME280;38044;45.148;39.604;2022-09-30T01:12:05;101248.22;;;14.07;86.09
52032;BME280;38044;45.148;39.604;2022-09-30T01:14:32;101243.09;;;13.92;86.34
52032;BME280;38044;45.148;39.604;2022-09-30T01:29:16;101265.63;;;14.01;86.53
52032;BME280;38044;45.148;39.604;2022-09-30T01:32:16;101152.63;;;13.05;86.25
52032;BME280;38044;45.148;39.604;2022-09-30T01:35:07;101276.41;;;13.87;86.75
52032;BME280;38044;45.148;39.604;2022-09-30T01:37:54;101254.25;;;13.71;87.00
52032;BME280;38044;45.148;39.604;2022-09-30T01:40:42;101244.69;;;13.60;86.69
52032;BME280;38044;45.148;39.604;2022-09-30T01:46:17;101283.38;;;13.74;86.37
52032;BME280;38044;45.148;39.604;2022-09-30T01:49:00;101166.69;;;13.02;86.75
52032;BME280;38044;45.148;39.604;2022-09-30T01:51:44;101250.84;;;13.47;87.08
52032;BME280;38044;45.148;39.604;2022-09-30T01:54:41;101185.22;;;13.08;87.07
52032;BME280;38044;45.148;39.604;2022-09-30T01:57:23;101284.75;;;13.72;87.09
52032;BME280;38044;45.148;39.604;2022-09-30T02:00:07;101206.06;;;13.22;86.82
52032;BME280;38044;45.148;39.604;2022-09-30T02:02:51;101284.03;;;13.66;86.52
52032;BME280;38044;45.148;39.604;2022-09-30T02:05:26;101272.38;;;13.52;86.65
52032;BME280;38044;45.148;39.604;2022-09-30T02:08:03;101305.38;;;13.68;86.31
52032;BME280;38044;45.148;39.604;2022-09-30T02:10:41;101233.34;;;13.25;86.41
52032;BME280;38044;45.148;39.604;2022-09-30T02:13:17;101252.66;;;13.33;86.36
52032;BME280;38044;45.148;39.604;2022-09-30T02:15:51;101199.59;;;13.04;86.27
52032;BME280;38044;45.148;39.604;2022-09-30T02:18:30;101297.03;;;13.64;86.41
52032;BME280;38044;45.148;39.604;2022-09-30T02:21:02;101304.13;;;13.60;86.49
52032;BME280;38044;45.148;39.604;2022-09-30T02:23:35;101263.97;;;13.35;86.30
52032;BME280;38044;45.148;39.604;2022-09-30T02:26:27;101197.31;;;12.92;86.44
52032;BME280;38044;45.148;39.604;2022-09-30T02:29:07;101254.94;;;13.25;86.33
52032;BME280;38044;45.148;39.604;2022-09-30T02:31:38;101175.91;;;12.58;86.23
52032;BME280;38044;45.148;39.604;2022-09-30T02:34:13;101256.47;;;13.07;86.61
52032;BME280;38044;45.148;39.604;2022-09-30T02:37:05;101294.28;;;13.32;86.43
52032;BME280;38044;45.148;39.604;2022-09-30T02:42:21;101257.94;;;13.00;86.48
52032;BME280;38044;45.148;39.604;2022-09-30T02:44:50;101174.31;;;12.33;86.28
52032;BME280;38044;45.148;39.604;2022-09-30T02:47:29;101273.78;;;13.06;86.34
52032;BME280;38044;45.148;39.604;2022-09-30T02:58:20;101288.81;;;13.13;86.14
52032;BME280;38044;45.148;39.604;2022-09-30T03:00:51;101288.75;;;13.18;85.93
52032;BME280;38044;45.148;39.604;2022-09-30T03:06:09;101302.78;;;13.39;86.10
52032;BME280;38044;45.148;39.604;2022-09-30T03:08:36;101305.28;;;13.35;85.64
52032;BME280;38044;45.148;39.604;2022-09-30T03:11:03;101291.38;;;13.23;85.51
52032;BME280;38044;45.148;39.604;2022-09-30T03:13:42;101174.66;;;12.50;85.59
52032;BME280;38044;45.148;39.604;2022-09-30T03:16:33;101296.75;;;13.28;85.55
52032;BME280;38044;45.148;39.604;2022-09-30T03:21:54;101170.31;;;12.30;85.51
52032;BME280;38044;45.148;39.604;2022-09-30T03:30:18;101301.44;;;13.17;85.76
52032;BME280;38044;45.148;39.604;2022-09-30T03:32:52;101300.94;;;13.15;86.32
52032;BME280;38044;45.148;39.604;2022-09-30T03:35:57;101165.38;;;12.37;86.45
52032;BME280;38044;45.148;39.604;2022-09-30T03:41:05;101300.25;;;13.28;86.42
52032;BME280;38044;45.148;39.604;2022-09-30T03:43:41;101262.91;;;13.12;86.33
52032;BME280;38044;45.148;39.604;2022-09-30T03:46:39;101300.41;;;13.37;86.04
52032;BME280;38044;45.148;39.604;2022-09-30T03:49:10;101303.09;;;13.56;85.55
52032;BME280;38044;45.148;39.604;2022-09-30T03:51:39;101166.97;;;12.81;85.35
52032;BME280;38044;45.148;39.604;2022-09-30T03:54:10;101299.22;;;13.81;84.91
52032;BME280;38044;45.148;39.604;2022-09-30T03:56:38;101278.03;;;13.88;84.25
52032;BME280;38044;45.148;39.604;2022-09-30T03:59:26;101313.59;;;14.42;83.40
52032;BME280;38044;45.148;39.604;2022-09-30T04:01:55;101289.84;;;14.39;82.67
52032;BME280;38044;45.148;39.604;2022-09-30T04:04:24;101280.88;;;14.57;81.80
52032;BME280;38044;45.148;39.604;2022-09-30T04:06:50;101272.38;;;14.78;80.73
52032;BME280;38044;45.148;39.604;2022-09-30T04:09:16;101223.25;;;14.71;79.81
52032;BME280;38044;45.148;39.604;2022-09-30T04:11:42;101313.88;;;15.51;78.98
52032;BME280;38044;45.148;39.604;2022-09-30T04:14:07;101228.03;;;15.60;77.38
52032;BME280;38044;45.148;39.604;2022-09-30T04:16:33;101304.31;;;16.43;76.12
52032;BME280;38044;45.148;39.604;2022-09-30T04:18:59;101279.72;;;16.40;75.11
52032;BME280;38044;45.148;39.604;2022-09-30T04:21:25;101270.00;;;16.48;74.34
52032;BME280;38044;45.148;39.604;2022-09-30T04:23:53;101283.78;;;17.00;73.75
52032;BME280;38044;45.148;39.604;2022-09-30T04:26:19;101159.63;;;16.83;72.17
52032;BME280;38044;45.148;39.604;2022-09-30T04:28:45;101240.81;;;17.80;71.05
52032;BME280;38044;45.148;39.604;2022-09-30T04:31:12;101131.53;;;17.87;68.84
52032;BME280;38044;45.148;39.604;2022-09-30T04:33:39;101329.06;;;20.08;66.50
52032;BME280;38044;45.148;39.604;2022-09-30T04:36:06;101303.25;;;21.00;63.93
52032;BME280;38044;45.148;39.604;2022-09-30T04:38:32;101248.84;;;21.63;61.14
52032;BME280;38044;45.148;39.604;2022-09-30T04:41:02;101340.69;;;22.96;58.10
52032;BME280;38044;45.148;39.604;2022-09-30T04:43:28;101345.41;;;23.50;57.11
52032;BME280;38044;45.148;39.604;2022-09-30T04:45:54;101333.66;;;23.89;55.97
52032;BME280;38044;45.148;39.604;2022-09-30T04:48:23;101325.84;;;24.33;54.58
52032;BME280;38044;45.148;39.604;2022-09-30T04:50:49;101314.53;;;24.84;53.71
52032;BME280;38044;45.148;39.604;2022-09-30T04:53:18;101225.00;;;24.87;52.09
52032;BME280;38044;45.148;39.604;2022-09-30T04:55:44;101239.81;;;25.39;51.49
52032;BME280;38044;45.148;39.604;2022-09-30T04:58:11;101313.13;;;26.25;50.42
52032;BME280;38044;45.148;39.604;2022-09-30T05:00:37;101300.69;;;26.46;49.66
52032;BME280;38044;45.148;39.604;2022-09-30T05:03:04;101314.88;;;26.96;48.72
52032;BME280;38044;45.148;39.604;2022-09-30T05:05:31;101313.38;;;27.13;48.27
52032;BME280;38044;45.148;39.604;2022-09-30T05:08:03;101276.84;;;27.34;47.59
52032;BME280;38044;45.148;39.604;2022-09-30T05:10:30;101259.81;;;27.17;46.87
52032;BME280;38044;45.148;39.604;2022-09-30T05:12:56;101263.41;;;27.22;46.90
52032;BME280;38044;45.148;39.604;2022-09-30T05:15:23;101331.09;;;27.92;46.91
52032;BME280;38044;45.148;39.604;2022-09-30T05:17:50;101350.53;;;28.49;45.48
52032;BME280;38044;45.148;39.604;2022-09-30T05:20:17;101346.59;;;28.68;45.24
52032;BME280;38044;45.148;39.604;2022-09-30T05:22:43;101360.00;;;29.06;44.83
52032;BME280;38044;45.148;39.604;2022-09-30T05:25:09;101334.69;;;29.11;44.46
52032;BME280;38044;45.148;39.604;2022-09-30T05:27:35;101363.84;;;29.40;43.88
52032;BME280;38044;45.148;39.604;2022-09-30T05:30:02;101348.75;;;29.63;43.16
52032;BME280;38044;45.148;39.604;2022-09-30T05:32:28;101244.50;;;29.17;42.98
52032;BME280;38044;45.148;39.604;2022-09-30T05:34:55;101301.09;;;29.90;42.41
52032;BME280;38044;45.148;39.604;2022-09-30T05:37:21;101358.94;;;30.50;42.27
52032;BME280;38044;45.148;39.604;2022-09-30T05:39:47;101354.84;;;30.62;42.02
52032;BME280;38044;45.148;39.604;2022-09-30T05:42:12;101248.25;;;30.15;41.51
52032;BME280;38044;45.148;39.604;2022-09-30T05:44:38;101340.75;;;30.91;41.49
52032;BME280;38044;45.148;39.604;2022-09-30T05:47:04;101334.78;;;31.27;40.94
52032;BME280;38044;45.148;39.604;2022-09-30T05:49:30;101239.84;;;31.05;40.95
52032;BME280;38044;45.148;39.604;2022-09-30T05:52:00;101245.16;;;31.53;39.91
52032;BME280;38044;45.148;39.604;2022-09-30T05:54:27;101271.16;;;31.97;39.68
52032;BME280;38044;45.148;39.604;2022-09-30T05:56:53;101353.00;;;32.47;39.30
52032;BME280;38044;45.148;39.604;2022-09-30T05:59:19;101368.63;;;32.14;39.97
52032;BME280;38044;45.148;39.604;2022-09-30T06:01:45;101334.19;;;31.73;40.65
52032;BME280;38044;45.148;39.604;2022-09-30T06:04:11;101325.56;;;31.37;41.09
52032;BME280;38044;45.148;39.604;2022-09-30T06:06:36;101318.53;;;31.59;40.67
52032;BME280;38044;45.148;39.604;2022-09-30T06:09:03;101287.53;;;31.92;39.67
52032;BME280;38044;45.148;39.604;2022-09-30T06:24:27;101337.44;;;33.36;38.20
52032;BME280;38044;45.148;39.604;2022-09-30T06:26:53;101381.03;;;34.03;37.81
52032;BME280;38044;45.148;39.604;2022-09-30T06:29:19;101380.38;;;34.31;37.18
52032;BME280;38044;45.148;39.604;2022-09-30T06:31:45;101390.81;;;34.27;36.75
52032;BME280;38044;45.148;39.604;2022-09-30T06:34:11;101371.91;;;34.35;36.25
52032;BME280;38044;45.148;39.604;2022-09-30T06:36:37;101382.66;;;34.69;36.05
52032;BME280;38044;45.148;39.604;2022-09-30T06:39:03;101347.41;;;34.59;35.68
52032;BME280;38044;45.148;39.604;2022-09-30T06:41:30;101380.34;;;34.97;35.48
52032;BME280;38044;45.148;39.604;2022-09-30T06:43:56;101273.94;;;34.62;34.91
52032;BME280;38044;45.148;39.604;2022-09-30T06:46:23;101364.44;;;35.52;34.79
52032;BME280;38044;45.148;39.604;2022-09-30T06:48:54;101368.59;;;35.73;33.74
52032;BME280;38044;45.148;39.604;2022-09-30T06:51:19;101315.88;;;35.04;34.41
52032;BME280;38044;45.148;39.604;2022-09-30T06:53:49;101319.66;;;35.39;33.90
52032;BME280;38044;45.148;39.604;2022-09-30T06:56:16;101398.97;;;36.00;34.35
52032;BME280;38044;45.148;39.604;2022-09-30T06:58:43;101380.50;;;35.77;33.87
52032;BME280;38044;45.148;39.604;2022-09-30T07:01:10;101403.44;;;36.11;34.04
52032;BME280;38044;45.148;39.604;2022-09-30T07:03:41;101396.06;;;36.17;33.50
52032;BME280;38044;45.148;39.604;2022-09-30T07:06:09;101370.75;;;35.82;33.26
52032;BME280;38044;45.148;39.604;2022-09-30T07:08:36;101378.47;;;35.78;33.49
52032;BME280;38044;45.148;39.604;2022-09-30T07:11:12;101392.00;;;35.92;34.37
52032;BME280;38044;45.148;39.604;2022-09-30T07:13:44;101291.25;;;34.86;34.17
52032;BME280;38044;45.148;39.604;2022-09-30T07:16:14;101405.53;;;35.39;33.86
52032;BME280;38044;45.148;39.604;2022-09-30T07:18:41;101376.94;;;35.06;34.49
52032;BME280;38044;45.148;39.604;2022-09-30T07:21:07;101382.56;;;35.02;34.43
52032;BME280;38044;45.148;39.604;2022-09-30T07:23:34;101375.94;;;35.12;34.61
52032;BME280;38044;45.148;39.604;2022-09-30T07:26:02;101335.84;;;35.19;34.41
52032;BME280;38044;45.148;39.604;2022-09-30T07:28:34;101370.19;;;35.87;33.53
52032;BME280;38044;45.148;39.604;2022-09-30T07:31:06;101401.31;;;35.89;33.39
52032;BME280;38044;45.148;39.604;2022-09-30T07:33:32;101392.13;;;36.27;34.64
52032;BME280;38044;45.148;39.604;2022-09-30T07:36:00;101401.16;;;35.80;34.14
52032;BME280;38044;45.148;39.604;2022-09-30T07:38:33;101285.00;;;35.11;33.40
52032;BME280;38044;45.148;39.604;2022-09-30T07:41:03;101394.13;;;35.75;33.69
52032;BME280;38044;45.148;39.604;2022-09-30T07:43:30;101329.47;;;35.18;33.71
52032;BME280;38044;45.148;39.604;2022-09-30T07:46:11;101265.44;;;35.11;34.29
52032;BME280;38044;45.148;39.604;2022-09-30T07:48:39;101373.88;;;35.84;33.49
52032;BME280;38044;45.148;39.604;2022-09-30T07:51:14;101367.06;;;35.72;33.20
52032;BME280;38044;45.148;39.604;2022-09-30T07:53:42;101392.22;;;35.72;33.96
52032;BME280;38044;45.148;39.604;2022-09-30T07:56:09;101351.03;;;35.18;34.37
52032;BME280;38044;45.148;39.604;2022-09-30T07:58:36;101358.38;;;35.41;34.20
52032;BME280;38044;45.148;39.604;2022-09-30T08:01:03;101378.06;;;35.50;34.16
52032;BME280;38044;45.148;39.604;2022-09-30T08:03:32;101383.59;;;35.25;34.03
52032;BME280;38044;45.148;39.604;2022-09-30T08:06:09;101251.66;;;35.17;33.28
52032;BME280;38044;45.148;39.604;2022-09-30T08:08:36;101277.41;;;35.25;33.39
52032;BME280;38044;45.148;39.604;2022-09-30T08:11:04;101367.41;;;35.45;34.30
52032;BME280;38044;45.148;39.604;2022-09-30T08:13:30;101367.63;;;35.93;34.12
52032;BME280;38044;45.148;39.604;2022-09-30T08:15:56;101358.56;;;35.89;33.31
52032;BME280;38044;45.148;39.604;2022-09-30T08:18:22;101362.25;;;35.73;33.31
52032;BME280;38044;45.148;39.604;2022-09-30T08:20:48;101336.53;;;35.78;34.01
52032;BME280;38044;45.148;39.604;2022-09-30T08:23:15;101368.03;;;36.42;33.17
52032;BME280;38044;45.148;39.604;2022-09-30T08:25:41;101364.91;;;36.40;32.36
52032;BME280;38044;45.148;39.604;2022-09-30T08:28:07;101326.22;;;35.75;32.80
52032;BME280;38044;45.148;39.604;2022-09-30T08:30:37;101359.88;;;35.71;32.90
52032;BME280;38044;45.148;39.604;2022-09-30T08:33:03;101291.69;;;35.14;33.03
52032;BME280;38044;45.148;39.604;2022-09-30T08:35:29;101369.31;;;35.77;33.06
52032;BME280;38044;45.148;39.604;2022-09-30T08:37:55;101353.75;;;35.89;32.54
52032;BME280;38044;45.148;39.604;2022-09-30T08:40:27;101381.84;;;36.24;32.32
52032;BME280;38044;45.148;39.604;2022-09-30T08:45:42;101294.47;;;35.14;32.16
52032;BME280;38044;45.148;39.604;2022-09-30T08:48:25;101391.66;;;35.77;31.28
52032;BME280;38044;45.148;39.604;2022-09-30T08:53:49;101350.09;;;35.50;32.48
52032;BME280;38044;45.148;39.604;2022-09-30T08:56:21;101381.03;;;35.85;32.77
52032;BME280;38044;45.148;39.604;2022-09-30T08:58:50;101361.13;;;35.83;31.30
52032;BME280;38044;45.148;39.604;2022-09-30T09:01:26;101274.09;;;35.55;31.92
52032;BME280;38044;45.148;39.604;2022-09-30T09:03:53;101373.66;;;36.17;32.21
52032;BME280;38044;45.148;39.604;2022-09-30T09:09:17;101380.06;;;36.04;31.66
52032;BME280;38044;45.148;39.604;2022-09-30T09:19:48;101363.94;;;35.83;31.43
52032;BME280;38044;45.148;39.604;2022-09-30T09:22:16;101357.19;;;35.68;31.33
52032;BME280;38044;45.148;39.604;2022-09-30T09:24:46;101248.81;;;34.91;31.17
52032;BME280;38044;45.148;39.604;2022-09-30T09:27:19;101387.63;;;35.24;32.13
52032;BME280;38044;45.148;39.604;2022-09-30T09:30:09;101383.88;;;35.43;32.57
52032;BME280;38044;45.148;39.604;2022-09-30T09:32:36;101366.28;;;35.42;32.11
52032;BME280;38044;45.148;39.604;2022-09-30T09:35:21;101373.53;;;35.82;32.33
52032;BME280;38044;45.148;39.604;2022-09-30T09:38:04;101354.44;;;35.51;32.67
52032;BME280;38044;45.148;39.604;2022-09-30T09:41:03;101375.13;;;35.41;32.50
52032;BME280;38044;45.148;39.604;2022-09-30T09:46:21;101288.84;;;34.10;32.59
52032;BME280;38044;45.148;39.604;2022-09-30T09:49:13;101367.72;;;34.27;31.85
52032;BME280;38044;45.148;39.604;2022-09-30T09:54:42;101362.72;;;34.02;32.73
52032;BME280;38044;45.148;39.604;2022-09-30T09:57:14;101256.50;;;33.80;32.63
52032;BME280;38044;45.148;39.604;2022-09-30T10:00:08;101357.38;;;34.60;31.56
52032;BME280;38044;45.148;39.604;2022-09-30T10:03:05;101363.28;;;34.46;32.29
52032;BME280;38044;45.148;39.604;2022-09-30T10:05:37;101351.44;;;34.09;32.80
52032;BME280;38044;45.148;39.604;2022-09-30T10:08:16;101301.78;;;33.84;32.71
52032;BME280;38044;45.148;39.604;2022-09-30T10:10:53;101330.81;;;34.03;32.42
52032;BME280;38044;45.148;39.604;2022-09-30T10:13:23;101362.16;;;33.91;32.75
52032;BME280;38044;45.148;39.604;2022-09-30T10:16:00;101326.59;;;33.78;32.54
52032;BME280;38044;45.148;39.604;2022-09-30T10:18:36;101255.66;;;32.67;32.97
52032;BME280;38044;45.148;39.604;2022-09-30T10:21:22;101356.97;;;32.93;33.84
52032;BME280;38044;45.148;39.604;2022-09-30T10:23:48;101339.81;;;32.00;34.01
52032;BME280;38044;45.148;39.604;2022-09-30T10:31:24;101298.13;;;31.08;34.70
52032;BME280;38044;45.148;39.604;2022-09-30T10:34:10;101348.78;;;31.50;35.57
52032;BME280;38044;45.148;39.604;2022-09-30T10:36:41;101216.28;;;30.48;36.03
52032;BME280;38044;45.148;39.604;2022-09-30T10:42:18;101331.59;;;30.94;37.04
52032;BME280;38044;45.148;39.604;2022-09-30T10:44:55;101224.44;;;30.24;38.98
52032;BME280;38044;45.148;39.604;2022-09-30T10:47:24;101355.69;;;31.01;40.03
52032;BME280;38044;45.148;39.604;2022-09-30T10:50:00;101356.47;;;31.01;40.78
52032;BME280;38044;45.148;39.604;2022-09-30T10:52:39;101229.56;;;30.26;40.02
52032;BME280;38044;45.148;39.604;2022-09-30T10:57:45;101329.19;;;30.51;41.39
52032;BME280;38044;45.148;39.604;2022-09-30T11:00:15;101352.13;;;30.55;40.46
52032;BME280;38044;45.148;39.604;2022-09-30T11:03:01;101342.59;;;30.60;40.70
52032;BME280;38044;45.148;39.604;2022-09-30T11:05:33;101331.41;;;30.18;40.08
52032;BME280;38044;45.148;39.604;2022-09-30T11:11:04;101350.59;;;30.50;39.85
52032;BME280;38044;45.148;39.604;2022-09-30T11:13:58;101350.72;;;30.33;38.80
52032;BME280;38044;45.148;39.604;2022-09-30T11:19:09;101332.31;;;30.01;40.73
52032;BME280;38044;45.148;39.604;2022-09-30T11:21:45;101320.47;;;29.97;40.96
52032;BME280;38044;45.148;39.604;2022-09-30T11:26:50;101342.94;;;30.09;40.50
52032;BME280;38044;45.148;39.604;2022-09-30T11:32:28;101327.66;;;29.83;41.37
52032;BME280;38044;45.148;39.604;2022-09-30T11:38:10;101322.28;;;29.51;41.54
52032;BME280;38044;45.148;39.604;2022-09-30T11:54:10;101363.84;;;29.48;41.33
52032;BME280;38044;45.148;39.604;2022-09-30T11:56:50;101363.06;;;29.40;40.69
52032;BME280;38044;45.148;39.604;2022-09-30T11:59:22;101340.22;;;29.11;40.37
52032;BME280;38044;45.148;39.604;2022-09-30T12:01:52;101228.06;;;28.31;40.50
52032;BME280;38044;45.148;39.604;2022-09-30T12:07:29;101249.38;;;28.38;40.75
52032;BME280;38044;45.148;39.604;2022-09-30T12:09:59;101352.47;;;28.95;40.96
52032;BME280;38044;45.148;39.604;2022-09-30T12:12:25;101350.09;;;28.94;40.93
52032;BME280;38044;45.148;39.604;2022-09-30T12:15:03;101380.53;;;29.12;40.23
52032;BME280;38044;45.148;39.604;2022-09-30T12:20:40;101330.75;;;28.94;38.96
52032;BME280;38044;45.148;39.604;2022-09-30T12:25:58;101358.81;;;29.03;37.45
52032;BME280;38044;45.148;39.604;2022-09-30T12:37:02;101272.28;;;28.02;37.27
52032;BME280;38044;45.148;39.604;2022-09-30T12:39:55;101367.91;;;28.61;37.56
52032;BME280;38044;45.148;39.604;2022-09-30T12:45:38;101369.50;;;28.47;38.98
52032;BME280;38044;45.148;39.604;2022-09-30T12:48:12;101358.38;;;28.19;38.68
52032;BME280;38044;45.148;39.604;2022-09-30T12:50:45;101338.97;;;27.87;38.83
52032;BME280;38044;45.148;39.604;2022-09-30T12:53:17;101343.28;;;27.84;39.29
52032;BME280;38044;45.148;39.604;2022-09-30T12:55:47;101259.03;;;27.21;39.70
52032;BME280;38044;45.148;39.604;2022-09-30T13:13:28;101382.75;;;27.81;40.49
52032;BME280;38044;45.148;39.604;2022-09-30T13:16:00;101357.44;;;27.65;41.55
52032;BME280;38044;45.148;39.604;2022-09-30T13:26:33;101389.31;;;27.48;41.09
52032;BME280;38044;45.148;39.604;2022-09-30T13:31:28;101275.97;;;26.53;41.63
52032;BME280;38044;45.148;39.604;2022-09-30T13:41:48;101380.97;;;26.82;42.15
52032;BME280;38044;45.148;39.604;2022-09-30T13:44:27;101374.09;;;26.61;42.43
52032;BME280;38044;45.148;39.604;2022-09-30T13:47:01;101354.22;;;26.41;42.76
52032;BME280;38044;45.148;39.604;2022-09-30T13:49:44;101385.50;;;26.60;43.36
52032;BME280;38044;45.148;39.604;2022-09-30T13:52:24;101390.56;;;26.54;43.17
52032;BME280;38044;45.148;39.604;2022-09-30T13:54:54;101390.00;;;26.38;43.96
52032;BME280;38044;45.148;39.604;2022-09-30T13:57:34;101368.13;;;26.15;44.52
52032;BME280;38044;45.148;39.604;2022-09-30T14:00:12;101230.44;;;25.13;44.60
52032;BME280;38044;45.148;39.604;2022-09-30T14:05:48;101401.78;;;25.97;46.13
52032;BME280;38044;45.148;39.604;2022-09-30T14:16:45;101390.66;;;25.60;46.63
52032;BME280;38044;45.148;39.604;2022-09-30T14:19:30;101379.28;;;25.31;48.53
52032;BME280;38044;45.148;39.604;2022-09-30T14:22:05;101408.03;;;25.37;48.03
52032;BME280;38044;45.148;39.604;2022-09-30T14:24:34;101408.72;;;25.27;47.77
52032;BME280;38044;45.148;39.604;2022-09-30T14:30:08;101380.50;;;24.84;48.11
52032;BME280;38044;45.148;39.604;2022-09-30T14:32:49;101306.47;;;24.26;50.72
52032;BME280;38044;45.148;39.604;2022-09-30T14:35:19;101401.41;;;24.66;52.52
52032;BME280;38044;45.148;39.604;2022-09-30T14:40:18;101430.25;;;24.53;53.75
52032;BME280;38044;45.148;39.604;2022-09-30T14:42:45;101383.84;;;24.09;54.40
52032;BME280;38044;45.148;39.604;2022-09-30T14:45:20;101415.56;;;24.25;55.24
52032;BME280;38044;45.148;39.604;2022-09-30T14:47:49;101421.88;;;24.07;55.91
52032;BME280;38044;45.148;39.604;2022-09-30T14:50:23;101383.84;;;23.70;56.22
52032;BME280;38044;45.148;39.604;2022-09-30T14:52:50;101394.66;;;23.63;56.10
52032;BME280;38044;45.148;39.604;2022-09-30T14:55:32;101420.53;;;23.61;57.52
52032;BME280;38044;45.148;39.604;2022-09-30T14:58:37;101418.56;;;23.62;57.15
52032;BME280;38044;45.148;39.604;2022-09-30T15:01:16;101422.38;;;23.38;56.47
52032;BME280;38044;45.148;39.604;2022-09-30T15:03:51;101426.47;;;23.12;56.59
52032;BME280;38044;45.148;39.604;2022-09-30T15:06:29;101409.31;;;22.84;58.61
52032;BME280;38044;45.148;39.604;2022-09-30T15:09:22;101432.88;;;22.88;59.28
52032;BME280;38044;45.148;39.604;2022-09-30T15:11:48;101366.19;;;22.21;59.80
52032;BME280;38044;45.148;39.604;2022-09-30T15:14:19;101404.22;;;22.38;60.63
52032;BME280;38044;45.148;39.604;2022-09-30T15:16:51;101381.84;;;22.08;61.17
52032;BME280;38044;45.148;39.604;2022-09-30T15:21:53;101407.00;;;21.98;61.72
52032;BME280;38044;45.148;39.604;2022-09-30T15:24:21;101276.28;;;20.86;62.10
52032;BME280;38044;45.148;39.604;2022-09-30T15:26:50;101417.91;;;21.70;62.83
52032;BME280;38044;45.148;39.604;2022-09-30T15:29:17;101410.66;;;21.49;63.38
52032;BME280;38044;45.148;39.604;2022-09-30T15:34:24;101450.50;;;21.63;63.84
52032;BME280;38044;45.148;39.604;2022-09-30T15:37:03;101344.38;;;20.91;64.44
52032;BME280;38044;45.148;39.604;2022-09-30T15:39:36;101395.72;;;21.10;64.60
52032;BME280;38044;45.148;39.604;2022-09-30T15:43:03;101419.63;;;21.25;65.40
52032;BME280;38044;45.148;39.604;2022-09-30T15:45:46;101460.66;;;21.25;65.94
52032;BME280;38044;45.148;39.604;2022-09-30T15:50:56;101454.03;;;21.02;66.51
52032;BME280;38044;45.148;39.604;2022-09-30T15:53:29;101337.19;;;20.16;66.79
52032;BME280;38044;45.148;39.604;2022-09-30T15:56:14;101478.06;;;20.96;66.90
52032;BME280;38044;45.148;39.604;2022-09-30T15:58:40;101431.06;;;20.57;66.85
52032;BME280;38044;45.148;39.604;2022-09-30T16:01:23;101395.34;;;20.29;67.34
52032;BME280;38044;45.148;39.604;2022-09-30T16:03:55;101487.88;;;20.64;68.00
52032;BME280;38044;45.148;39.604;2022-09-30T16:06:35;101474.13;;;20.52;68.72
52032;BME280;38044;45.148;39.604;2022-09-30T16:09:30;101404.59;;;20.03;69.02
52032;BME280;38044;45.148;39.604;2022-09-30T16:17:30;101474.28;;;20.34;69.65
52032;BME280;38044;45.148;39.604;2022-09-30T16:20:03;101348.06;;;19.41;69.65
52032;BME280;38044;45.148;39.604;2022-09-30T16:27:45;101469.97;;;19.91;70.87
52032;BME280;38044;45.148;39.604;2022-09-30T16:30:14;101477.78;;;20.01;70.96
52032;BME280;38044;45.148;39.604;2022-09-30T16:32:42;101472.88;;;19.95;70.67
52032;BME280;38044;45.148;39.604;2022-09-30T16:35:19;101361.63;;;19.29;71.50
52032;BME280;38044;45.148;39.604;2022-09-30T16:37:46;101486.16;;;19.96;70.74